createdAt,value
2023-03-25T00:01:16.210Z,7.07
2023-03-25T00:03:50.760Z,8.77
2023-03-25T00:06:19.981Z,4.65
2023-03-25T00:08:48.648Z,8.57
2023-03-25T00:11:16.938Z,7.72
2023-03-25T00:13:45.627Z,5.93
2023-03-25T00:16:14.017Z,5.63
2023-03-25T00:18:43.173Z,6.28
2023-03-25T00:21:12.711Z,8.13
2023-03-25T00:23:42.724Z,6.65
2023-03-25T00:26:11.810Z,6.78
2023-03-25T00:28:40.575Z,5.53
2023-03-25T00:31:12.767Z,4.85
2023-03-25T00:33:42.715Z,9.55
2023-03-25T00:36:14.744Z,4.78
2023-03-25T00:38:45.657Z,6.15
2023-03-25T00:41:17.790Z,6.68
2023-03-25T00:43:46.640Z,6.45
2023-03-25T00:46:14.940Z,6.30
2023-03-25T00:48:44.224Z,8.32
2023-03-25T00:51:21.403Z,9.05
2023-03-25T00:53:53.192Z,9.75
2023-03-25T00:56:21.786Z,7.20
2023-03-25T00:58:50.525Z,5.65
2023-03-25T01:01:23.597Z,5.70
2023-03-25T01:03:57.864Z,7.93
2023-03-25T01:06:29.846Z,8.68
2023-03-25T01:08:59.665Z,8.45
2023-03-25T01:11:30.188Z,7.85
2023-03-25T01:13:59.755Z,5.93
2023-03-25T01:16:29.152Z,4.68
2023-03-25T01:18:57.700Z,6.38
2023-03-25T01:21:27.463Z,7.50
2023-03-25T01:23:56.036Z,6.90
2023-03-25T01:26:24.274Z,4.47
2023-03-25T01:28:53.956Z,6.45
2023-03-25T01:31:23.399Z,9.40
2023-03-25T01:33:51.879Z,6.43
2023-03-25T01:36:21.392Z,6.13
2023-03-25T01:38:51.605Z,11.85
2023-03-25T01:41:19.993Z,5.65
2023-03-25T01:44:03.169Z,7.18
2023-03-25T01:46:31.430Z,10.15
2023-03-25T01:49:02.644Z,8.15
2023-03-25T01:51:34.308Z,8.63
2023-03-25T01:54:05.102Z,9.68
2023-03-25T01:56:36.705Z,6.22
2023-03-25T01:59:07.989Z,9.80
2023-03-25T02:01:36.765Z,10.95
2023-03-25T02:04:10.119Z,7.13
2023-03-25T02:06:43.089Z,7.97
2023-03-25T02:09:17.436Z,8.50
2023-03-25T02:11:45.681Z,10.95
2023-03-25T02:14:17.668Z,5.68
2023-03-25T02:16:51.881Z,9.40
2023-03-25T02:19:52.656Z,7.97
2023-03-25T02:22:53.641Z,7.47
2023-03-25T02:25:45.947Z,7.20
2023-03-25T02:28:25.775Z,12.25
2023-03-25T02:31:28.586Z,8.40
2023-03-25T02:34:37.818Z,9.98
2023-03-25T02:37:26.468Z,9.60
2023-03-25T02:40:01.832Z,7.30
2023-03-25T02:42:35.751Z,8.05
2023-03-25T02:45:08.038Z,9.73
2023-03-25T02:47:42.314Z,7.00
2023-03-25T02:50:15.659Z,10.50
2023-03-25T02:52:48.852Z,6.05
2023-03-25T02:55:20.814Z,9.40
2023-03-25T02:57:55.227Z,7.97
2023-03-25T03:00:27.522Z,7.97
2023-03-25T03:03:00.352Z,7.70
2023-03-25T03:05:31.776Z,8.50
2023-03-25T03:08:31.687Z,16.23
2023-03-25T03:11:08.762Z,7.82
2023-03-25T03:13:53.649Z,7.63
2023-03-25T03:16:30.984Z,8.70
2023-03-25T03:19:06.319Z,6.53
2023-03-25T03:21:40.840Z,7.20
2023-03-25T03:24:16.686Z,12.98
2023-03-25T03:26:55.329Z,11.70
2023-03-25T03:29:30.306Z,9.10
2023-03-25T03:32:06.409Z,15.65
2023-03-25T03:34:43.189Z,8.52
2023-03-25T03:37:13.930Z,9.02
2023-03-25T03:39:44.898Z,7.53
2023-03-25T03:42:19.885Z,11.27
2023-03-25T03:44:53.640Z,9.98
2023-03-25T03:47:26.214Z,10.93
2023-03-25T03:49:58.681Z,6.95
2023-03-25T03:52:31.895Z,10.02
2023-03-25T03:55:03.130Z,9.27
2023-03-25T03:57:37.381Z,10.25
2023-03-25T04:00:11.840Z,11.35
2023-03-25T04:02:42.658Z,9.38
2023-03-25T04:05:14.546Z,9.90
2023-03-25T04:07:46.229Z,12.65
2023-03-25T04:10:19.970Z,9.50
2023-03-25T04:12:53.082Z,10.63
2023-03-25T04:15:22.115Z,7.90
2023-03-25T04:17:50.932Z,8.77
2023-03-25T04:20:24.667Z,7.75
2023-03-25T04:22:53.777Z,11.18
2023-03-25T04:25:25.262Z,9.90
2023-03-25T04:27:58.897Z,19.92
2023-03-25T04:30:28.907Z,10.98
2023-03-25T04:32:57.391Z,10.50
2023-03-25T04:35:26.900Z,8.60
2023-03-25T04:37:57.572Z,15.45
2023-03-25T04:40:26.843Z,10.60
2023-03-25T04:42:57.566Z,14.15
2023-03-25T04:45:26.439Z,12.60
2023-03-25T04:47:55.142Z,10.67
2023-03-25T04:50:27.342Z,9.15
2023-03-25T04:52:58.177Z,8.82
2023-03-25T04:55:27.162Z,12.48
2023-03-25T04:57:56.961Z,10.97
2023-03-25T05:00:26.439Z,10.80
2023-03-25T05:02:56.707Z,9.88
2023-03-25T05:05:26.605Z,7.53
2023-03-25T05:07:58.389Z,9.70
2023-03-25T05:10:29.582Z,8.27
2023-03-25T05:13:01.884Z,12.68
2023-03-25T05:15:32.737Z,7.60
2023-03-25T05:18:02.043Z,10.18
2023-03-25T05:20:30.910Z,10.82
2023-03-25T05:22:59.171Z,12.98
2023-03-25T05:25:29.096Z,12.07
2023-03-25T05:27:57.498Z,11.00
2023-03-25T05:30:32.437Z,11.20
2023-03-25T05:33:01.876Z,12.15
2023-03-25T05:35:30.472Z,11.07
2023-03-25T05:37:58.820Z,14.02
2023-03-25T05:40:27.230Z,7.97
2023-03-25T05:42:56.116Z,14.45
2023-03-25T05:45:24.841Z,10.77
2023-03-25T05:47:54.488Z,12.25
2023-03-25T05:50:23.210Z,8.98
2023-03-25T05:52:51.898Z,9.07
2023-03-25T05:55:22.926Z,11.77
2023-03-25T05:57:51.415Z,12.90
2023-03-25T06:00:23.511Z,5.65
2023-03-25T06:02:54.936Z,13.82
2023-03-25T06:05:24.285Z,6.93
2023-03-25T06:07:56.373Z,8.13
2023-03-25T06:10:25.263Z,7.32
2023-03-25T06:12:54.444Z,12.73
2023-03-25T06:15:28.943Z,10.70
2023-03-25T06:17:59.654Z,6.95
2023-03-25T06:20:28.338Z,8.32
2023-03-25T06:22:56.761Z,7.30
2023-03-25T06:25:26.743Z,9.90
2023-03-25T06:27:56.193Z,4.97
2023-03-25T06:30:24.768Z,6.32
2023-03-25T06:32:55.864Z,6.47
2023-03-25T06:35:26.526Z,4.80
2023-03-25T06:37:55.467Z,5.93
2023-03-25T06:40:24.190Z,5.07
2023-03-25T06:42:52.539Z,5.63
2023-03-25T06:45:21.076Z,4.95
2023-03-25T06:47:49.350Z,7.40
2023-03-25T06:50:17.986Z,6.00
2023-03-25T06:52:47.801Z,5.80
2023-03-25T06:55:16.706Z,4.70
2023-03-25T06:57:45.471Z,4.10
2023-03-25T07:00:14.745Z,5.97
2023-03-25T07:02:42.973Z,5.88
2023-03-25T07:05:11.707Z,4.38
2023-03-25T07:07:40.464Z,5.00
2023-03-25T07:10:13.496Z,8.45
2023-03-25T07:12:41.781Z,5.30
2023-03-25T07:15:10.722Z,4.78
2023-03-25T07:17:39.091Z,5.85
2023-03-25T07:20:11.789Z,4.38
2023-03-25T07:22:41.256Z,4.53
2023-03-25T07:25:11.427Z,4.43
2023-03-25T07:27:39.872Z,3.78
2023-03-25T07:30:09.713Z,3.97
2023-03-25T07:32:38.075Z,5.65
2023-03-25T07:35:09.244Z,3.50
2023-03-25T07:37:37.548Z,6.75
2023-03-25T07:40:07.161Z,3.20
2023-03-25T07:42:37.485Z,7.43
2023-03-25T07:45:06.881Z,3.92
2023-03-25T07:47:35.585Z,5.47
2023-03-25T07:50:04.251Z,6.88
2023-03-25T07:52:32.562Z,4.28
2023-03-25T07:55:02.010Z,6.78
2023-03-25T07:57:30.340Z,2.40
2023-03-25T08:00:00.289Z,3.05
2023-03-25T08:02:28.915Z,4.65
2023-03-25T08:04:57.587Z,3.78
2023-03-25T08:07:28.335Z,2.55
2023-03-25T08:09:56.968Z,5.95
2023-03-25T08:12:25.247Z,2.83
2023-03-25T08:14:53.723Z,3.50
2023-03-25T08:17:23.949Z,7.45
2023-03-25T08:19:52.588Z,4.53
2023-03-25T08:22:20.862Z,3.92
2023-03-25T08:24:49.454Z,3.50
2023-03-25T08:27:17.713Z,5.32
2023-03-25T08:29:54.385Z,2.42
2023-03-25T08:32:24.380Z,2.15
2023-03-25T08:34:52.824Z,2.60
2023-03-25T08:37:21.616Z,8.75
2023-03-25T08:39:50.600Z,4.53
2023-03-25T08:42:19.432Z,7.47
2023-03-25T08:44:47.910Z,2.97
2023-03-25T08:47:16.224Z,4.05
2023-03-25T08:49:46.170Z,2.13
2023-03-25T08:52:14.350Z,3.28
2023-03-25T08:54:43.025Z,2.58
2023-03-25T08:57:11.508Z,5.32
2023-03-25T08:59:40.170Z,4.05
2023-03-25T09:02:08.485Z,5.25
2023-03-25T09:04:38.995Z,5.78
2023-03-25T09:07:12.509Z,4.30
2023-03-25T09:09:41.606Z,4.07
2023-03-25T09:12:10.201Z,5.22
2023-03-25T09:14:38.622Z,3.58
2023-03-25T09:17:07.033Z,4.80
2023-03-25T09:19:37.891Z,2.67
2023-03-25T09:22:08.355Z,6.13
2023-03-25T09:24:36.872Z,4.10
2023-03-25T09:27:05.340Z,6.10
2023-03-25T09:29:34.209Z,4.05
2023-03-25T09:32:03.113Z,6.40
2023-03-25T09:34:32.609Z,5.10
2023-03-25T09:37:01.200Z,6.00
2023-03-25T09:39:31.523Z,5.40
2023-03-25T09:42:10.689Z,3.40
2023-03-25T09:44:50.863Z,10.73
2023-03-25T09:47:21.662Z,5.93
2023-03-25T09:49:54.581Z,4.45
2023-03-25T09:52:27.711Z,7.35
2023-03-25T09:55:02.610Z,15.57
2023-03-25T09:57:33.688Z,3.28
2023-03-25T10:00:07.011Z,10.73
2023-03-25T10:02:42.174Z,3.08
2023-03-25T10:05:41.086Z,7.97
2023-03-25T10:08:17.992Z,5.75
2023-03-25T10:10:53.958Z,6.45
2023-03-25T10:13:27.960Z,4.07
2023-03-25T10:16:16.382Z,2.28
2023-03-25T10:18:56.692Z,3.33
2023-03-25T10:21:29.923Z,7.10
2023-03-25T10:24:06.364Z,3.60
2023-03-25T10:26:44.348Z,6.40
2023-03-25T10:29:16.986Z,5.07
2023-03-25T10:31:53.114Z,6.93
2023-03-25T10:34:24.649Z,8.02
2023-03-25T10:36:58.100Z,5.15
2023-03-25T10:39:34.316Z,1.92
2023-03-25T10:42:18.468Z,3.92
2023-03-25T10:44:47.236Z,4.57
2023-03-25T10:47:19.799Z,2.60
2023-03-25T10:49:51.035Z,3.20
2023-03-25T10:52:20.066Z,3.65
2023-03-25T10:54:52.923Z,3.53
2023-03-25T10:57:27.953Z,3.30
2023-03-25T11:00:08.627Z,4.57
2023-03-25T11:02:37.271Z,7.57
2023-03-25T11:05:08.588Z,4.05
2023-03-25T11:07:41.762Z,4.30
2023-03-25T11:10:23.083Z,4.05
2023-03-25T11:12:54.892Z,3.40
2023-03-25T11:15:25.699Z,3.72
2023-03-25T11:18:01.155Z,3.15
2023-03-25T11:20:31.908Z,3.83
2023-03-25T11:23:08.007Z,3.63
2023-03-25T11:25:41.798Z,4.18
2023-03-25T11:28:18.782Z,5.68
2023-03-25T11:31:11.055Z,2.65
2023-03-25T11:33:41.332Z,3.33
2023-03-25T11:36:21.221Z,3.63
2023-03-25T11:38:57.744Z,2.22
2023-03-25T11:41:30.421Z,3.22
2023-03-25T11:44:00.591Z,2.42
2023-03-25T11:46:28.872Z,2.25
2023-03-25T11:48:57.600Z,5.47
2023-03-25T11:51:29.554Z,4.95
2023-03-25T11:54:00.746Z,2.50
2023-03-25T11:56:35.224Z,2.47
2023-03-25T11:59:10.267Z,2.58
2023-03-25T12:02:02.482Z,21.00
2023-03-25T12:04:31.649Z,40.75
2023-03-25T12:07:02.776Z,93.03
2023-03-25T12:09:32.999Z,36.05
2023-03-25T12:12:21.617Z,7.32
2023-03-25T12:15:00.417Z,11.68
2023-03-25T12:17:38.219Z,11.85
2023-03-25T12:20:17.246Z,9.35
2023-03-25T12:22:59.597Z,4.88
2023-03-25T12:25:53.791Z,6.57
2023-03-25T12:29:05.536Z,9.55
2023-03-25T12:31:44.258Z,2.75
2023-03-25T12:34:24.868Z,6.05
2023-03-25T12:37:05.773Z,3.55
2023-03-25T12:39:53.730Z,12.45
2023-03-25T12:42:36.797Z,4.95
2023-03-25T12:45:25.422Z,5.53
2023-03-25T12:48:00.008Z,2.90
2023-03-25T12:50:36.810Z,2.65
2023-03-25T12:53:15.691Z,1.90
2023-03-25T12:55:52.578Z,2.63
2023-03-25T12:59:02.464Z,4.13
2023-03-25T13:01:40.570Z,2.08
2023-03-25T13:04:45.056Z,2.38
2023-03-25T13:07:17.090Z,1.90
2023-03-25T13:09:55.626Z,1.45
2023-03-25T13:12:32.363Z,2.50
2023-03-25T13:15:07.854Z,1.88
2023-03-25T13:17:41.120Z,2.22
2023-03-25T13:20:13.179Z,2.58
2023-03-25T13:22:44.936Z,1.65
2023-03-25T13:25:23.110Z,1.65
2023-03-25T13:27:53.258Z,2.38
2023-03-25T13:30:32.166Z,5.50
2023-03-25T13:33:06.206Z,1.55
2023-03-25T13:35:46.274Z,1.00
2023-03-25T13:38:21.265Z,1.08
2023-03-25T13:40:59.239Z,0.88
2023-03-25T13:43:33.329Z,1.70
2023-03-25T13:46:09.257Z,2.33
2023-03-25T13:48:45.124Z,0.95
2023-03-25T13:51:15.360Z,0.85
2023-03-25T13:53:47.613Z,1.13
2023-03-25T13:56:52.082Z,0.80
2023-03-25T13:59:52.525Z,1.48
2023-03-25T14:03:02.275Z,1.77
2023-03-25T14:05:56.566Z,3.78
2023-03-25T14:09:00.905Z,3.10
2023-03-25T14:11:32.029Z,4.55
2023-03-25T14:14:04.213Z,1.88
2023-03-25T14:16:38.718Z,4.13
2023-03-25T14:19:12.643Z,1.85
2023-03-25T14:21:44.344Z,1.48
2023-03-25T14:24:19.660Z,1.45
2023-03-25T14:26:51.659Z,2.10
2023-03-25T14:29:30.704Z,2.72
2023-03-25T14:32:08.424Z,2.13
2023-03-25T14:34:56.076Z,0.90
2023-03-25T14:37:30.869Z,2.15
2023-03-25T14:40:07.332Z,7.72
2023-03-25T14:42:44.393Z,1.08
2023-03-25T14:45:42.169Z,2.83
2023-03-25T14:48:26.276Z,1.10
2023-03-25T14:51:14.942Z,2.10
2023-03-25T14:53:56.683Z,1.58
2023-03-25T14:56:34.064Z,4.30
2023-03-25T14:59:10.504Z,1.73
2023-03-25T15:01:41.739Z,5.25
2023-03-25T15:04:16.594Z,1.88
2023-03-25T15:06:49.123Z,2.58
2023-03-25T15:09:19.573Z,3.60
2023-03-25T15:11:59.527Z,10.02
2023-03-25T15:14:32.954Z,3.92
2023-03-25T15:17:08.234Z,8.48
2023-03-25T15:20:15.750Z,3.50
2023-03-25T15:22:44.671Z,4.03
2023-03-25T15:25:18.615Z,3.13
2023-03-25T15:28:14.971Z,2.83
2023-03-25T15:30:58.600Z,3.72
2023-03-25T15:33:46.114Z,4.82
2023-03-25T15:36:34.657Z,3.60
2023-03-25T15:39:18.391Z,4.68
2023-03-25T15:42:08.636Z,5.43
2023-03-25T15:44:53.301Z,3.75
2023-03-25T15:47:37.572Z,2.67
2023-03-25T15:50:38.329Z,2.90
2023-03-25T15:53:43.033Z,4.47
2023-03-25T15:56:14.546Z,9.80
2023-03-25T15:58:51.136Z,1.65
2023-03-25T16:01:27.697Z,2.15
2023-03-25T16:04:01.269Z,4.57
2023-03-25T16:06:30.824Z,3.28
2023-03-25T16:09:00.380Z,2.13
2023-03-25T16:11:29.981Z,1.67
2023-03-25T16:14:08.358Z,3.30
2023-03-25T16:16:41.745Z,2.35
2023-03-25T16:19:16.442Z,3.47
2023-03-25T16:21:48.734Z,2.15
2023-03-25T16:24:20.630Z,2.40
2023-03-25T16:26:51.212Z,5.72
2023-03-25T16:29:20.991Z,2.38
2023-03-25T16:31:56.471Z,10.15
2023-03-25T16:34:26.255Z,1.42
2023-03-25T16:36:56.598Z,1.50
2023-03-25T16:39:26.215Z,2.42
2023-03-25T16:42:02.818Z,2.05
2023-03-25T16:44:31.290Z,3.08
2023-03-25T16:47:02.291Z,3.00
2023-03-25T16:49:33.697Z,1.75
2023-03-25T16:52:05.274Z,1.88
2023-03-25T16:54:37.768Z,3.63
2023-03-25T16:57:08.952Z,2.22
2023-03-25T16:59:39.116Z,2.20
2023-03-25T17:02:26.536Z,1.45
2023-03-25T17:04:58.748Z,1.10
2023-03-25T17:07:29.841Z,1.90
2023-03-25T17:10:00.332Z,2.77
2023-03-25T17:12:30.765Z,2.08
2023-03-25T17:15:06.893Z,1.45
2023-03-25T17:17:42.183Z,5.13
2023-03-25T17:20:19.023Z,3.70
2023-03-25T17:23:02.034Z,2.45
2023-03-25T17:25:33.434Z,2.42
2023-03-25T17:28:09.993Z,4.25
2023-03-25T17:30:45.806Z,2.45
2023-03-25T17:33:19.684Z,2.38
2023-03-25T17:35:53.888Z,2.53
2023-03-25T17:38:27.808Z,3.80
2023-03-25T17:41:04.341Z,3.78
2023-03-25T17:43:35.243Z,2.08
2023-03-25T17:46:05.974Z,2.75
2023-03-25T17:48:36.782Z,2.40
2023-03-25T17:51:05.697Z,3.00
2023-03-25T17:53:34.299Z,5.05
2023-03-25T17:56:03.705Z,4.10
2023-03-25T17:58:32.477Z,3.55
2023-03-25T18:01:01.389Z,3.30
2023-03-25T18:03:32.681Z,4.50
2023-03-25T18:06:02.471Z,3.42
2023-03-25T18:08:31.185Z,6.25
2023-03-25T18:11:00.074Z,3.42
2023-03-25T18:13:28.768Z,4.53
2023-03-25T18:15:57.046Z,2.03
2023-03-25T18:18:27.450Z,3.78
2023-03-25T18:20:57.072Z,2.10
2023-03-25T18:23:28.351Z,44.88
2023-03-25T18:25:57.912Z,58.08
2023-03-25T18:28:26.465Z,38.47
2023-03-25T18:30:56.812Z,45.03
2023-03-25T18:33:25.717Z,46.63
2023-03-25T18:35:56.337Z,35.53
2023-03-25T18:38:27.770Z,29.55
2023-03-25T18:40:57.414Z,47.95
2023-03-25T18:43:26.044Z,33.92
2023-03-25T18:45:54.456Z,28.83
2023-03-25T18:48:23.763Z,24.65
2023-03-25T18:50:54.746Z,25.30
2023-03-25T18:53:25.819Z,36.28
2023-03-25T18:55:59.693Z,20.65
2023-03-25T18:58:31.102Z,25.20
2023-03-25T19:01:01.065Z,19.00
2023-03-25T19:03:31.752Z,21.48
2023-03-25T19:06:01.022Z,18.35
2023-03-25T19:08:29.678Z,13.38
2023-03-25T19:11:07.902Z,19.35
2023-03-25T19:13:41.233Z,16.88
2023-03-25T19:16:12.992Z,13.95
2023-03-25T19:18:41.727Z,20.63
2023-03-25T19:21:15.624Z,15.38
2023-03-25T19:23:44.247Z,12.55
2023-03-25T19:26:14.768Z,14.57
2023-03-25T19:28:43.507Z,7.57
2023-03-25T19:31:15.696Z,8.38
2023-03-25T19:33:45.082Z,7.15
2023-03-25T19:36:15.884Z,20.27
2023-03-25T19:38:44.570Z,11.77
2023-03-25T19:41:16.878Z,9.85
2023-03-25T19:43:45.745Z,9.68
2023-03-25T19:46:14.475Z,5.20
2023-03-25T19:48:43.030Z,13.18
2023-03-25T19:51:11.585Z,6.80
2023-03-25T19:53:40.402Z,10.95
2023-03-25T19:56:13.725Z,7.63
2023-03-25T19:58:43.807Z,9.38
2023-03-25T20:01:12.205Z,5.50
2023-03-25T20:03:41.214Z,6.88
2023-03-25T20:06:09.884Z,8.55
2023-03-25T20:08:38.469Z,6.72
2023-03-25T20:11:11.936Z,6.38
2023-03-25T20:13:40.619Z,8.95
2023-03-25T20:16:10.934Z,9.88
2023-03-25T20:18:41.426Z,8.18
2023-03-25T20:21:10.376Z,9.65
2023-03-25T20:23:39.063Z,5.22
2023-03-25T20:26:07.847Z,6.72
2023-03-25T20:28:37.282Z,6.45
2023-03-25T20:31:18.693Z,3.40
2023-03-25T20:33:47.950Z,4.90
2023-03-25T20:36:16.485Z,4.32
2023-03-25T20:38:56.672Z,6.55
2023-03-25T20:41:26.664Z,6.82
2023-03-25T20:43:55.275Z,7.68
2023-03-25T20:46:28.431Z,8.13
2023-03-25T20:48:57.886Z,2.97
2023-03-25T20:51:26.683Z,4.45
2023-03-25T20:53:55.634Z,4.25
2023-03-25T20:56:23.907Z,5.70
2023-03-25T20:58:52.349Z,3.20
2023-03-25T21:01:21.209Z,4.80
2023-03-25T21:03:51.927Z,3.97
2023-03-25T21:06:23.758Z,3.75
2023-03-25T21:08:54.744Z,5.00
2023-03-25T21:11:23.256Z,2.45
2023-03-25T21:13:52.094Z,5.05
2023-03-25T21:16:20.650Z,4.47
2023-03-25T21:18:50.258Z,3.17
2023-03-25T21:21:20.282Z,4.85
2023-03-25T21:23:49.481Z,4.40
2023-03-25T21:26:17.976Z,2.55
2023-03-25T21:28:46.453Z,2.97
2023-03-25T21:31:18.866Z,8.23
2023-03-25T21:33:49.915Z,2.65
2023-03-25T21:36:23.099Z,4.15
2023-03-25T21:38:52.772Z,4.35
2023-03-25T21:41:20.988Z,5.85
2023-03-25T21:43:49.481Z,4.45
2023-03-25T21:46:17.849Z,3.47
2023-03-25T21:48:48.536Z,4.30
2023-03-25T21:51:16.777Z,3.15
2023-03-25T21:53:47.182Z,3.50
2023-03-25T21:56:17.474Z,4.95
2023-03-25T21:58:47.075Z,5.85
2023-03-25T22:01:17.591Z,1.73
2023-03-25T22:03:46.689Z,3.33
2023-03-25T22:06:16.671Z,5.53
2023-03-25T22:08:47.374Z,4.60
2023-03-25T22:11:18.809Z,3.88
2023-03-25T22:13:47.355Z,3.05
2023-03-25T22:16:17.251Z,4.47
2023-03-25T22:18:45.944Z,4.53
2023-03-25T22:21:17.097Z,5.80
2023-03-25T22:23:48.194Z,3.42
2023-03-25T22:26:17.953Z,2.33
2023-03-25T22:28:47.667Z,3.95
2023-03-25T22:31:18.566Z,2.65
2023-03-25T22:33:49.182Z,6.78
2023-03-25T22:36:17.864Z,4.82
2023-03-25T22:38:49.948Z,3.88
2023-03-25T22:41:19.062Z,3.60
2023-03-25T22:43:47.818Z,2.53
2023-03-25T22:46:16.775Z,3.80
2023-03-25T22:48:45.387Z,3.22
2023-03-25T22:51:15.934Z,6.68
2023-03-25T22:53:44.898Z,4.90
2023-03-25T22:56:15.089Z,2.97
2023-03-25T22:58:43.888Z,2.25
2023-03-25T23:01:20.329Z,3.08
2023-03-25T23:03:48.894Z,4.72
2023-03-25T23:06:17.537Z,3.88
2023-03-25T23:08:47.510Z,4.53
2023-03-25T23:11:20.190Z,4.25
2023-03-25T23:13:52.068Z,2.50
2023-03-25T23:16:23.046Z,5.45
2023-03-25T23:18:52.034Z,4.07
2023-03-25T23:21:21.747Z,2.47
2023-03-25T23:23:52.234Z,4.50
2023-03-25T23:26:26.490Z,4.05
2023-03-25T23:29:00.292Z,4.78
2023-03-25T23:31:33.875Z,3.50
2023-03-25T23:34:05.467Z,2.88
2023-03-25T23:36:36.328Z,4.28
2023-03-25T23:39:07.533Z,3.47
2023-03-25T23:41:37.554Z,5.45
2023-03-25T23:44:06.787Z,2.45
2023-03-25T23:46:36.003Z,4.53
2023-03-25T23:49:05.776Z,3.67
2023-03-25T23:51:37.242Z,4.03
2023-03-25T23:54:07.392Z,4.80
2023-03-25T23:56:38.201Z,4.05
2023-03-25T23:59:07.569Z,5.20
